Time;durP1;ratioP1;P1;durP2;ratioP2;P2;SDS_P1;SDS_P2;PMS_P1;PMS_P2;Temp;Humidity;BMP_temperature;BMP_pressure;BME280_temperature;BME280_humidity;BME280_pressure;Samples;Min_cycle;Max_cycle;Signal;HPM_P1;HPM_P2
2022/09/20 00:01:05;;;;;;;1.92;0.80;;;19.50;99.90;;;;;;4163417;28;20270;-78
2022/09/20 00:03:07;;;;;;;2.42;1.05;;;19.50;99.90;;;;;;4161378;28;20270;-78
2022/09/20 00:05:10;;;;;;;3.70;1.30;;;19.50;99.90;;;;;;4162671;28;20705;-78
2022/09/20 00:07:12;;;;;;;2.85;0.93;;;19.50;99.90;;;;;;4147919;28;20244;-78
2022/09/20 00:09:14;;;;;;;2.58;1.05;;;19.50;99.90;;;;;;4148338;28;20271;-78
2022/09/20 00:11:18;;;;;;;2.28;1.10;;;19.50;99.90;;;;;;4145121;28;20263;-78
2022/09/20 00:13:21;;;;;;;1.35;0.75;;;19.50;99.90;;;;;;4143982;28;20229;-78
2022/09/20 00:15:24;;;;;;;1.23;0.90;;;19.50;99.90;;;;;;4141890;28;20276;-78
2022/09/20 00:17:27;;;;;;;2.03;1.05;;;19.50;99.90;;;;;;4145193;28;20578;-78
2022/09/20 00:19:29;;;;;;;2.38;0.80;;;19.50;99.90;;;;;;4145265;28;20267;-78
2022/09/20 00:21:33;;;;;;;2.20;0.80;;;19.50;99.90;;;;;;4144697;28;20224;-78
2022/09/20 00:23:35;;;;;;;1.60;0.98;;;19.50;99.90;;;;;;4144483;28;20782;-78
2022/09/20 00:25:38;;;;;;;2.58;0.85;;;19.50;99.90;;;;;;4142342;28;20241;-78
2022/09/20 00:27:40;;;;;;;1.15;0.88;;;19.50;99.90;;;;;;4143825;28;20627;-77
2022/09/20 00:29:42;;;;;;;2.25;0.85;;;19.50;99.90;;;;;;4143797;28;20267;-78
2022/09/20 00:31:46;;;;;;;1.77;0.93;;;19.40;99.90;;;;;;4144070;28;20295;-78
2022/09/20 00:36:08;;;;;;;1.98;0.80;;;19.40;99.90;;;;;;4143550;28;20601;-78
2022/09/20 00:38:12;;;;;;;1.63;0.80;;;19.40;99.90;;;;;;4144348;28;20712;-78
2022/09/20 00:40:16;;;;;;;2.28;1.10;;;19.40;99.90;;;;;;4144112;28;20299;-77
2022/09/20 00:42:19;;;;;;;1.50;0.82;;;19.40;99.90;;;;;;4143432;28;20220;-78
2022/09/20 00:44:55;;;;;;;3.33;0.88;;;19.40;99.90;;;;;;4144191;28;20221;-77
2022/09/20 00:47:00;;;;;;;2.70;0.90;;;19.50;99.90;;;;;;4143694;28;20625;-77
2022/09/20 00:49:07;;;;;;;2.42;1.10;;;19.40;99.90;;;;;;4143933;28;20221;-78
2022/09/20 00:51:14;;;;;;;1.63;0.88;;;19.40;99.90;;;;;;4144799;28;20331;-78
2022/09/20 00:53:20;;;;;;;1.52;0.70;;;19.40;99.90;;;;;;4144575;28;20220;-77
2022/09/20 00:55:23;;;;;;;3.63;1.10;;;19.40;99.90;;;;;;4145240;28;20670;-77
2022/09/20 00:57:26;;;;;;;1.73;0.80;;;19.40;99.90;;;;;;4144630;28;20885;-78
2022/09/20 00:59:31;;;;;;;1.83;0.95;;;19.40;99.90;;;;;;4144946;28;20229;-78
2022/09/20 01:01:34;;;;;;;1.45;0.85;;;19.40;99.90;;;;;;4144283;28;20247;-78
2022/09/20 01:03:40;;;;;;;1.40;0.90;;;19.40;99.90;;;;;;4149925;28;20287;-78
2022/09/20 01:05:44;;;;;;;1.88;0.90;;;19.40;99.90;;;;;;4149495;28;20244;-77
2022/09/20 01:07:48;;;;;;;3.20;1.17;;;19.40;99.90;;;;;;4162182;28;20602;-77
2022/09/20 01:09:51;;;;;;;2.03;0.90;;;19.40;99.90;;;;;;4164545;28;20224;-78
2022/09/20 01:11:56;;;;;;;2.13;1.00;;;19.30;99.90;;;;;;4164677;28;20224;-77
2022/09/20 01:13:58;;;;;;;1.60;0.88;;;19.40;99.90;;;;;;4164254;28;20258;-78
2022/09/20 01:16:02;;;;;;;2.05;0.70;;;19.40;99.90;;;;;;4155656;28;20208;-77
2022/09/20 01:18:07;;;;;;;2.90;1.10;;;19.40;99.90;;;;;;4164221;28;20220;-78
2022/09/20 01:20:15;;;;;;;1.90;0.90;;;19.40;99.90;;;;;;4164397;28;20267;-78
2022/09/20 01:22:23;;;;;;;1.30;0.68;;;19.40;99.90;;;;;;4163874;28;20215;-78
2022/09/20 01:24:33;;;;;;;1.00;0.70;;;19.30;99.90;;;;;;4154844;28;20216;-77
2022/09/20 01:26:55;;;;;;;1.58;1.02;;;19.40;99.90;;;;;;4164222;28;20684;-78
2022/09/20 01:29:08;;;;;;;2.95;0.80;;;19.40;99.90;;;;;;4163753;28;20216;-78
2022/09/20 01:31:15;;;;;;;2.83;0.93;;;19.30;99.90;;;;;;4164340;28;20819;-78
2022/09/20 01:33:28;;;;;;;0.80;0.70;;;19.40;99.90;;;;;;4166477;28;20278;-77
2022/09/20 01:35:34;;;;;;;2.10;0.95;;;19.30;99.90;;;;;;4164753;28;20265;-77
2022/09/20 01:37:45;;;;;;;1.38;0.82;;;19.30;99.90;;;;;;4163627;28;20730;-78
2022/09/20 01:39:57;;;;;;;1.80;1.17;;;19.30;99.90;;;;;;4158314;28;20250;-77
2022/09/20 01:42:05;;;;;;;2.22;0.90;;;19.40;99.90;;;;;;4162551;28;20212;-77
2022/09/20 01:44:13;;;;;;;1.30;0.88;;;19.30;99.90;;;;;;4161373;28;20212;-77
2022/09/20 01:46:28;;;;;;;2.97;0.93;;;19.30;99.90;;;;;;4163943;28;20290;-78
2022/09/20 01:48:35;;;;;;;2.17;0.95;;;19.30;99.90;;;;;;4155587;28;20544;-77
2022/09/20 01:50:50;;;;;;;1.58;0.73;;;19.30;99.90;;;;;;4163662;28;20258;-77
2022/09/20 01:53:23;;;;;;;1.33;0.80;;;19.30;99.90;;;;;;4165651;28;20220;-77
2022/09/20 01:55:55;;;;;;;1.13;0.80;;;19.30;99.90;;;;;;4180063;28;20219;-77
2022/09/20 01:58:33;;;;;;;2.15;0.80;;;19.30;99.90;;;;;;4182708;28;20224;-77
2022/09/20 02:00:53;;;;;;;2.25;1.00;;;19.30;99.90;;;;;;4174820;28;20733;-77
2022/09/20 02:03:23;;;;;;;2.83;0.90;;;19.30;99.90;;;;;;4172966;28;20269;-78
2022/09/20 02:05:42;;;;;;;2.03;1.00;;;19.30;99.90;;;;;;4178146;28;20723;-77
2022/09/20 02:08:06;;;;;;;1.90;1.00;;;19.30;99.90;;;;;;4142437;28;20295;-77
2022/09/20 02:10:38;;;;;;;2.05;0.93;;;19.30;99.90;;;;;;4141235;28;20213;-78
2022/09/20 02:12:54;;;;;;;2.40;1.10;;;19.30;99.90;;;;;;4146438;28;20728;-77
2022/09/20 02:15:03;;;;;;;1.58;0.80;;;19.30;99.90;;;;;;4143680;28;20275;-77
2022/09/20 02:17:12;;;;;;;1.20;0.88;;;19.30;99.90;;;;;;4147372;28;20221;-78
2022/09/20 02:19:50;;;;;;;1.73;1.00;;;19.30;99.90;;;;;;4147039;28;20220;-77
2022/09/20 02:22:09;;;;;;;1.75;0.77;;;19.30;99.90;;;;;;4143538;28;20279;-78
2022/09/20 02:24:20;;;;;;;1.92;0.77;;;19.30;99.90;;;;;;4146841;28;20259;-77
2022/09/20 02:26:33;;;;;;;1.48;0.88;;;19.30;99.90;;;;;;4147204;28;20283;-77
2022/09/20 02:29:01;;;;;;;1.17;0.90;;;19.30;99.90;;;;;;4141856;28;20269;-78
2022/09/20 02:31:15;;;;;;;1.05;0.70;;;19.30;99.90;;;;;;4145001;28;21023;-77
2022/09/20 02:33:42;;;;;;;1.92;0.90;;;19.30;99.90;;;;;;4141870;28;20658;-78
2022/09/20 02:35:58;;;;;;;1.00;0.73;;;19.30;99.90;;;;;;4138386;28;20221;-77
2022/09/20 02:38:20;;;;;;;1.38;0.90;;;19.30;99.90;;;;;;4147178;28;20221;-77
2022/09/20 02:40:47;;;;;;;1.80;1.00;;;19.20;99.90;;;;;;4143577;28;20275;-77
2022/09/20 02:42:58;;;;;;;1.35;0.90;;;19.20;99.90;;;;;;4146920;28;20243;-77
2022/09/20 02:45:06;;;;;;;1.92;0.73;;;19.20;99.90;;;;;;4146381;28;20221;-77
2022/09/20 02:47:17;;;;;;;1.30;0.77;;;19.20;99.90;;;;;;4140390;28;20251;-77
2022/09/20 02:49:28;;;;;;;0.77;0.55;;;19.20;99.90;;;;;;4140291;28;20274;-77
2022/09/20 02:51:39;;;;;;;1.65;0.80;;;19.20;99.90;;;;;;4146638;28;20739;-78
2022/09/20 02:53:51;;;;;;;1.70;0.98;;;19.20;99.90;;;;;;4150834;28;20285;-77
2022/09/20 02:56:03;;;;;;;1.42;0.80;;;19.20;99.90;;;;;;4143903;28;20279;-77
2022/09/20 02:58:23;;;;;;;1.20;0.77;;;19.30;99.90;;;;;;4146341;28;20221;-78
2022/09/20 03:00:28;;;;;;;1.58;1.00;;;19.30;99.90;;;;;;4151187;28;20286;-77
2022/09/20 03:02:42;;;;;;;1.17;0.70;;;19.20;99.90;;;;;;4144493;28;20271;-78
2022/09/20 03:05:01;;;;;;;2.08;0.80;;;19.20;99.90;;;;;;4139383;28;20677;-78
2022/09/20 03:07:12;;;;;;;2.03;1.20;;;19.20;99.90;;;;;;4151599;28;20318;-78
2022/09/20 03:09:24;;;;;;;2.08;0.88;;;19.30;99.90;;;;;;4161965;28;20274;-77
2022/09/20 03:11:32;;;;;;;1.25;0.90;;;19.30;99.90;;;;;;4160823;28;20715;-77
2022/09/20 03:13:55;;;;;;;0.77;0.57;;;19.30;99.90;;;;;;4161909;28;20224;-77
2022/09/20 03:16:09;;;;;;;1.27;0.88;;;19.20;99.90;;;;;;4160418;28;20270;-77
2022/09/20 03:18:14;;;;;;;1.75;0.90;;;19.30;99.90;;;;;;4160406;28;20266;-78
2022/09/20 03:20:33;;;;;;;1.65;1.00;;;19.20;99.90;;;;;;4160897;28;20212;-77
2022/09/20 03:22:51;;;;;;;2.15;0.80;;;19.20;99.90;;;;;;4157941;28;20267;-77
2022/09/20 03:25:06;;;;;;;1.08;0.77;;;19.30;99.90;;;;;;4162432;28;20282;-77
2022/09/20 03:27:19;;;;;;;2.08;0.88;;;19.20;99.90;;;;;;4160207;28;20330;-77
2022/09/20 03:29:35;;;;;;;0.77;0.60;;;19.20;99.90;;;;;;4160351;28;20641;-77
2022/09/20 03:31:56;;;;;;;1.27;0.85;;;19.30;99.90;;;;;;4160444;28;20224;-77
2022/09/20 03:34:11;;;;;;;1.27;0.73;;;19.30;99.90;;;;;;4156333;28;20715;-77
2022/09/20 03:36:28;;;;;;;1.17;0.70;;;19.20;99.90;;;;;;4160497;28;20216;-77
2022/09/20 03:38:45;;;;;;;1.77;0.85;;;19.30;99.90;;;;;;4159591;28;20224;-77
2022/09/20 03:41:02;;;;;;;1.23;0.77;;;19.30;99.90;;;;;;4157843;28;20220;-78
2022/09/20 03:43:13;;;;;;;1.75;0.95;;;19.20;99.90;;;;;;4160357;28;20306;-77
2022/09/20 03:45:37;;;;;;;1.58;0.85;;;19.20;99.90;;;;;;4160695;28;20615;-77
2022/09/20 03:48:20;;;;;;;1.98;0.80;;;19.20;99.90;;;;;;4161068;28;20243;-77
2022/09/20 03:50:46;;;;;;;0.93;0.65;;;19.20;99.90;;;;;;4160542;28;20697;-77
2022/09/20 03:53:17;;;;;;;1.73;0.93;;;19.20;99.90;;;;;;4154211;28;20216;-77
2022/09/20 03:55:52;;;;;;;1.77;0.88;;;19.20;99.90;;;;;;4156025;28;20243;-77
2022/09/20 03:58:16;;;;;;;1.35;0.70;;;19.20;99.90;;;;;;4153267;28;20263;-77
2022/09/20 04:00:24;;;;;;;2.25;0.90;;;19.30;99.90;;;;;;4160417;28;20661;-77
2022/09/20 04:02:44;;;;;;;1.05;0.93;;;19.20;99.90;;;;;;4160439;28;20220;-77
2022/09/20 04:04:50;;;;;;;1.30;0.88;;;19.20;99.90;;;;;;4161650;28;20216;-78
2022/09/20 04:07:09;;;;;;;1.13;0.80;;;19.20;99.90;;;;;;4148894;28;20303;-77
2022/09/20 04:09:40;;;;;;;2.00;1.10;;;19.20;99.90;;;;;;4143594;28;20289;-77
2022/09/20 04:11:50;;;;;;;1.65;0.90;;;19.20;99.90;;;;;;4143349;28;20217;-77
2022/09/20 04:14:00;;;;;;;2.00;0.70;;;19.20;99.90;;;;;;4144582;28;20373;-78
2022/09/20 04:16:22;;;;;;;1.05;0.70;;;19.20;99.90;;;;;;4154896;28;20275;-77
2022/09/20 04:18:31;;;;;;;1.20;0.75;;;19.20;99.90;;;;;;4144345;28;20620;-77
2022/09/20 04:20:42;;;;;;;1.90;0.90;;;19.20;99.90;;;;;;4148007;28;20842;-77
2022/09/20 04:22:47;;;;;;;2.03;0.80;;;19.20;99.90;;;;;;4141961;28;20666;-77
2022/09/20 04:24:56;;;;;;;1.35;0.80;;;19.20;99.90;;;;;;4142400;28;20213;-77
2022/09/20 04:27:01;;;;;;;1.60;0.80;;;19.20;99.90;;;;;;4149831;28;20287;-77
2022/09/20 04:29:19;;;;;;;0.80;0.60;;;19.20;99.90;;;;;;4147359;28;20221;-78
2022/09/20 04:31:33;;;;;;;2.17;0.70;;;19.20;99.90;;;;;;4141659;28;20229;-77
2022/09/20 04:33:41;;;;;;;1.15;0.70;;;19.20;99.90;;;;;;4143433;28;20299;-77
2022/09/20 04:38:17;;;;;;;2.55;0.80;;;19.20;99.90;;;;;;4153216;28;20193;-77
2022/09/20 04:40:30;;;;;;;0.90;0.52;;;19.20;99.90;;;;;;4149367;28;20221;-77
2022/09/20 04:43:09;;;;;;;1.75;0.85;;;19.20;99.90;;;;;;4156294;28;20259;-78
2022/09/20 04:45:51;;;;;;;2.53;0.70;;;19.20;99.90;;;;;;4149580;28;20613;-77
2022/09/20 04:48:28;;;;;;;2.65;1.10;;;19.10;99.90;;;;;;4146226;28;20670;-77
2022/09/20 04:51:08;;;;;;;4.70;0.98;;;19.10;99.90;;;;;;4154239;28;20220;-77
2022/09/20 04:53:44;;;;;;;2.90;1.05;;;19.10;99.90;;;;;;4149891;28;20217;-77
2022/09/20 04:55:54;;;;;;;2.15;1.02;;;19.20;99.90;;;;;;4146346;28;20267;-77
2022/09/20 04:58:34;;;;;;;1.80;0.60;;;19.10;99.90;;;;;;4148061;28;20228;-77
2022/09/20 05:00:54;;;;;;;3.45;0.90;;;19.10;99.90;;;;;;4144643;28;20267;-77
2022/09/20 05:03:35;;;;;;;4.28;1.00;;;19.10;99.90;;;;;;4146655;28;20224;-77
2022/09/20 05:06:01;;;;;;;2.80;0.85;;;19.10;99.90;;;;;;4146483;28;20267;-77
2022/09/20 05:08:50;;;;;;;2.80;0.90;;;19.10;99.90;;;;;;4162905;28;20240;-78
2022/09/20 05:11:29;;;;;;;1.45;0.80;;;19.10;99.90;;;;;;4161908;28;20278;-77
2022/09/20 05:13:42;;;;;;;0.93;0.63;;;19.10;99.90;;;;;;4137442;28;20281;-77
2022/09/20 05:15:55;;;;;;;2.83;1.00;;;19.10;99.90;;;;;;4179256;28;20733;-77
2022/09/20 05:18:34;;;;;;;2.50;0.90;;;19.10;99.90;;;;;;4178818;28;20215;-77
2022/09/20 05:21:03;;;;;;;1.55;0.82;;;19.10;99.90;;;;;;4179126;28;20288;-77
2022/09/20 05:23:37;;;;;;;1.48;0.77;;;19.10;99.90;;;;;;4177750;28;20279;-77
2022/09/20 05:26:05;;;;;;;1.48;0.80;;;19.10;99.90;;;;;;4177456;28;20219;-77
2022/09/20 05:28:18;;;;;;;2.85;0.80;;;19.10;99.90;;;;;;4172692;28;20231;-77
2022/09/20 05:30:30;;;;;;;1.38;0.80;;;19.10;99.90;;;;;;4178263;28;20290;-77
2022/09/20 05:32:40;;;;;;;2.05;0.80;;;19.10;99.90;;;;;;4177262;28;20266;-77
2022/09/20 05:34:49;;;;;;;1.40;0.85;;;19.10;99.90;;;;;;4179222;28;20249;-78
2022/09/20 05:36:59;;;;;;;2.20;0.85;;;19.10;99.90;;;;;;4178432;28;20992;-77
2022/09/20 05:39:14;;;;;;;1.48;0.93;;;19.10;99.90;;;;;;4176543;28;20277;-78
2022/09/20 05:41:28;;;;;;;1.88;0.88;;;19.10;99.90;;;;;;4177934;28;20216;-77
2022/09/20 05:43:35;;;;;;;1.75;0.73;;;19.10;99.90;;;;;;4177573;28;21008;-77
2022/09/20 05:45:49;;;;;;;1.90;0.98;;;19.10;99.90;;;;;;4177945;28;20287;-77
2022/09/20 05:47:57;;;;;;;2.25;0.90;;;19.10;99.90;;;;;;4178102;28;20236;-77
2022/09/20 05:50:16;;;;;;;1.60;1.00;;;19.10;99.90;;;;;;4177915;28;20253;-77
2022/09/20 05:52:36;;;;;;;2.28;0.85;;;19.10;99.90;;;;;;4178840;28;20223;-77
2022/09/20 05:54:50;;;;;;;0.77;0.60;;;19.20;99.90;;;;;;4179097;28;20663;-77
2022/09/20 05:56:59;;;;;;;1.13;0.65;;;19.10;99.90;;;;;;4176505;28;20219;-78
2022/09/20 05:59:20;;;;;;;2.15;1.05;;;19.10;99.90;;;;;;4177746;28;20220;-77
2022/09/20 06:01:26;;;;;;;2.05;0.73;;;19.10;99.90;;;;;;4178661;28;20215;-77
2022/09/20 06:03:37;;;;;;;1.15;0.90;;;19.10;99.90;;;;;;4177788;28;20978;-77
2022/09/20 06:05:49;;;;;;;1.80;0.85;;;19.10;99.90;;;;;;4178136;28;20208;-77
2022/09/20 06:08:08;;;;;;;2.25;0.80;;;19.10;99.90;;;;;;4177921;28;20699;-77
2022/09/20 06:10:40;;;;;;;1.48;0.80;;;19.10;99.90;;;;;;4178402;28;20208;-77
2022/09/20 06:12:53;;;;;;;0.90;0.70;;;19.10;99.90;;;;;;4179778;28;20257;-77
2022/09/20 06:15:03;;;;;;;1.45;0.90;;;19.10;99.90;;;;;;4178314;28;20261;-77
2022/09/20 06:17:17;;;;;;;0.95;0.75;;;19.10;99.90;;;;;;4178653;28;20215;-77
2022/09/20 06:19:32;;;;;;;2.15;0.85;;;19.10;99.90;;;;;;4178146;28;20220;-77
2022/09/20 06:21:42;;;;;;;0.88;0.73;;;19.10;99.90;;;;;;4178276;28;20223;-77
2022/09/20 06:23:44;;;;;;;1.85;0.77;;;19.10;99.90;;;;;;4178180;28;20224;-77
2022/09/20 06:25:52;;;;;;;1.65;0.90;;;19.10;99.90;;;;;;4178472;28;20246;-77
2022/09/20 06:28:00;;;;;;;1.45;0.75;;;19.10;99.90;;;;;;4177705;28;20292;-77
2022/09/20 06:30:07;;;;;;;1.88;0.90;;;19.10;99.90;;;;;;4174457;28;20277;-77
2022/09/20 06:32:09;;;;;;;2.03;1.13;;;19.10;99.90;;;;;;4178046;28;20237;-77
2022/09/20 06:34:15;;;;;;;1.77;0.80;;;19.10;99.90;;;;;;4178252;28;20621;-77
2022/09/20 06:41:27;;;;;;;1.42;0.93;;;19.10;99.90;;;;;;4154267;28;20694;-77
2022/09/20 06:43:30;;;;;;;2.50;1.00;;;19.10;99.90;;;;;;4176799;28;20656;-78
2022/09/20 06:45:34;;;;;;;1.60;0.80;;;19.10;99.90;;;;;;4176500;28;20615;-77
2022/09/20 06:47:36;;;;;;;1.58;0.80;;;19.10;99.90;;;;;;4174692;28;20627;-77
2022/09/20 06:49:41;;;;;;;3.50;0.80;;;19.10;99.90;;;;;;4178809;28;20657;-77
2022/09/20 06:51:43;;;;;;;1.10;0.80;;;19.10;99.90;;;;;;4176370;28;20254;-77
2022/09/20 06:53:46;;;;;;;1.02;0.70;;;19.10;99.90;;;;;;4177004;28;20216;-77
2022/09/20 06:55:48;;;;;;;2.25;1.30;;;19.10;99.90;;;;;;4176401;28;21078;-77
2022/09/20 06:57:51;;;;;;;2.58;0.90;;;19.00;99.90;;;;;;4175844;28;20671;-77
2022/09/20 06:59:53;;;;;;;1.60;0.80;;;19.00;99.90;;;;;;4175603;28;20277;-77
2022/09/20 07:01:57;;;;;;;4.40;1.10;;;19.10;99.90;;;;;;4168429;28;20262;-76
2022/09/20 07:04:00;;;;;;;1.92;0.93;;;19.10;99.90;;;;;;4171384;28;20211;-76
2022/09/20 07:06:03;;;;;;;3.42;0.93;;;19.10;99.90;;;;;;4175140;28;20641;-76
2022/09/20 07:08:06;;;;;;;2.35;1.00;;;19.20;99.90;;;;;;4173150;28;20239;-77
2022/09/20 07:10:09;;;;;;;2.17;0.98;;;19.10;99.90;;;;;;4163942;28;20219;-77
2022/09/20 07:12:11;;;;;;;1.88;1.17;;;19.20;99.90;;;;;;4173246;28;20254;-76
2022/09/20 07:14:14;;;;;;;1.42;1.00;;;19.20;99.90;;;;;;4175805;28;20250;-75
2022/09/20 07:16:17;;;;;;;4.72;1.10;;;19.20;99.90;;;;;;4174171;28;21089;-76
2022/09/20 07:18:21;;;;;;;3.70;0.90;;;19.20;99.90;;;;;;4165846;28;20275;-77
2022/09/20 07:20:23;;;;;;;2.38;1.10;;;19.20;99.90;;;;;;4165818;28;20266;-77
2022/09/20 07:22:25;;;;;;;1.00;0.75;;;19.20;99.90;;;;;;4170545;28;20224;-74
2022/09/20 07:24:31;;;;;;;3.03;0.95;;;19.30;99.90;;;;;;4173251;28;20262;-77
2022/09/20 07:26:33;;;;;;;2.13;1.20;;;19.30;99.90;;;;;;4178964;28;20223;-77
2022/09/20 07:28:35;;;;;;;2.83;1.00;;;19.40;99.90;;;;;;4169204;28;20268;-77
2022/09/20 07:30:38;;;;;;;3.38;0.90;;;19.30;99.90;;;;;;4164854;28;20280;-77
2022/09/20 07:32:40;;;;;;;2.40;1.00;;;19.30;99.90;;;;;;4165157;28;20219;-76
2022/09/20 07:34:44;;;;;;;4.10;1.27;;;19.40;99.90;;;;;;4168475;28;20220;-76
2022/09/20 07:36:47;;;;;;;1.58;0.98;;;19.40;99.90;;;;;;4184681;28;20293;-77
2022/09/20 07:38:51;;;;;;;3.20;1.02;;;19.40;99.90;;;;;;4179117;28;20215;-77
2022/09/20 07:40:56;;;;;;;2.28;1.00;;;19.40;99.90;;;;;;4174076;28;20735;-74
2022/09/20 07:42:59;;;;;;;2.50;0.98;;;19.50;99.90;;;;;;4168088;28;20223;-77
2022/09/20 07:45:02;;;;;;;3.78;1.10;;;19.50;99.90;;;;;;4174183;28;20215;-77
2022/09/20 07:47:05;;;;;;;1.70;1.10;;;19.50;99.90;;;;;;4175717;28;20506;-78
2022/09/20 07:49:07;;;;;;;3.45;1.30;;;19.50;99.90;;;;;;4167670;28;20760;-78
2022/09/20 07:51:13;;;;;;;2.90;1.05;;;19.50;99.90;;;;;;4176455;28;20751;-78
2022/09/20 07:53:15;;;;;;;3.25;1.33;;;19.50;99.90;;;;;;4177634;28;20219;-78
2022/09/20 07:55:18;;;;;;;9.27;1.27;;;19.50;99.90;;;;;;4174054;28;20840;-77
2022/09/20 07:57:20;;;;;;;3.17;0.95;;;19.50;99.90;;;;;;4171248;28;21229;-76
2022/09/20 07:59:23;;;;;;;11.13;1.23;;;19.60;99.90;;;;;;4168307;28;20224;-76
2022/09/20 08:01:25;;;;;;;2.50;1.15;;;19.50;99.90;;;;;;4167454;28;20273;-78
2022/09/20 08:03:30;;;;;;;3.92;1.08;;;19.50;99.90;;;;;;4173640;28;20250;-78
2022/09/20 08:05:32;;;;;;;2.38;1.20;;;19.50;99.90;;;;;;4174747;28;20661;-75
2022/09/20 08:07:35;;;;;;;4.63;1.13;;;19.60;99.90;;;;;;4173532;28;20269;-77
2022/09/20 08:09:38;;;;;;;2.22;1.08;;;19.60;99.90;;;;;;4172395;28;20239;-76
2022/09/20 08:11:42;;;;;;;3.50;1.42;;;19.70;99.90;;;;;;4174680;28;20271;-77
2022/09/20 08:13:48;;;;;;;3.53;1.30;;;19.70;99.90;;;;;;4175719;28;20582;-77
2022/09/20 08:15:50;;;;;;;2.97;1.08;;;19.70;99.90;;;;;;4178205;28;20226;-77
2022/09/20 08:17:52;;;;;;;3.05;1.30;;;19.70;99.90;;;;;;4173651;28;20983;-77
2022/09/20 08:19:55;;;;;;;3.50;1.17;;;19.70;99.90;;;;;;4176255;28;20621;-76
2022/09/20 08:21:57;;;;;;;2.75;0.98;;;19.70;99.90;;;;;;4176895;28;20296;-77
2022/09/20 08:24:02;;;;;;;3.53;1.20;;;19.80;99.90;;;;;;4176816;28;20269;-76
2022/09/20 08:26:07;;;;;;;4.30;1.42;;;19.80;99.90;;;;;;4179146;28;20695;-76
2022/09/20 08:28:09;;;;;;;5.15;1.15;;;19.70;99.90;;;;;;4174113;28;20211;-74
2022/09/20 08:30:12;;;;;;;4.18;1.50;;;19.80;99.90;;;;;;4169221;28;20261;-75
2022/09/20 08:32:15;;;;;;;4.55;1.63;;;19.80;99.90;;;;;;4167752;28;20274;-74
2022/09/20 08:34:17;;;;;;;3.88;1.02;;;19.80;99.90;;;;;;4167514;28;20216;-73
2022/09/20 08:36:21;;;;;;;5.43;1.10;;;19.80;99.90;;;;;;4171745;28;20615;-75
2022/09/20 08:38:25;;;;;;;2.53;1.33;;;19.80;99.90;;;;;;4173984;28;20215;-74
2022/09/20 08:40:30;;;;;;;2.47;1.20;;;19.90;99.90;;;;;;4174873;28;20216;-76
2022/09/20 08:42:35;;;;;;;4.47;0.90;;;19.80;99.90;;;;;;4175345;28;20289;-77
2022/09/20 08:44:49;;;;;;;5.18;1.50;;;19.90;99.90;;;;;;4174897;28;20272;-74
2022/09/20 08:47:02;;;;;;;4.20;1.20;;;19.90;99.90;;;;;;4167558;28;20257;-77
2022/09/20 08:49:07;;;;;;;3.72;1.08;;;19.90;99.90;;;;;;4174200;28;20243;-78
2022/09/20 08:51:12;;;;;;;2.97;1.20;;;19.80;99.90;;;;;;4176814;28;20277;-80
2022/09/20 08:53:15;;;;;;;2.88;1.27;;;19.80;99.90;;;;;;4174644;28;20215;-78
2022/09/20 08:55:20;;;;;;;5.93;1.30;;;19.90;99.90;;;;;;4171218;28;20553;-79
2022/09/20 08:57:29;;;;;;;3.10;1.27;;;19.80;99.90;;;;;;4180341;28;20269;-78
2022/09/20 08:59:32;;;;;;;2.45;1.10;;;19.90;99.90;;;;;;4172726;28;21240;-79
2022/09/20 09:01:34;;;;;;;3.45;1.20;;;19.90;99.90;;;;;;4170568;28;20216;-79
2022/09/20 09:03:37;;;;;;;2.97;1.40;;;20.00;99.90;;;;;;4169782;28;20221;-78
2022/09/20 09:05:44;;;;;;;3.17;1.20;;;20.00;99.90;;;;;;4165193;28;20216;-78
2022/09/20 09:07:47;;;;;;;2.55;0.98;;;20.00;99.90;;;;;;4160693;28;20212;-79
2022/09/20 09:09:53;;;;;;;4.93;1.30;;;20.00;99.90;;;;;;4165108;28;20684;-79
2022/09/20 09:11:57;;;;;;;8.38;1.40;;;20.00;99.90;;;;;;4143438;28;20300;-78
2022/09/20 09:14:46;;;;;;;3.95;1.20;;;20.00;99.90;;;;;;4160482;28;20305;-79
2022/09/20 09:16:29;;;;;;;2.88;1.40;;;20.00;99.90;;;;;;4160257;28;20292;-80
2022/09/20 09:18:34;;;;;;;2.97;1.10;;;20.00;99.90;;;;;;4162467;28;20290;-77
2022/09/20 09:20:43;;;;;;;2.22;1.13;;;20.00;99.90;;;;;;4152556;28;20664;-78
2022/09/20 09:22:46;;;;;;;4.07;1.13;;;20.10;99.90;;;;;;4151548;28;20220;-77
2022/09/20 09:25:23;;;;;;;5.32;1.58;;;20.10;99.90;;;;;;4153607;28;20212;-81
2022/09/20 09:27:25;;;;;;;3.20;1.33;;;20.10;99.90;;;;;;4135405;28;20628;-77
2022/09/20 09:29:29;;;;;;;3.10;1.50;;;20.10;99.90;;;;;;4159673;28;20240;-77
2022/09/20 09:31:37;;;;;;;5.32;1.20;;;20.10;99.90;;;;;;4153779;28;20637;-77
2022/09/20 09:33:44;;;;;;;4.97;1.40;;;20.10;99.90;;;;;;4155699;28;20224;-76
2022/09/20 09:35:54;;;;;;;3.70;1.27;;;20.10;99.90;;;;;;4147840;28;20653;-77
2022/09/20 09:37:58;;;;;;;4.70;1.15;;;20.00;99.90;;;;;;4150825;28;20265;-77
2022/09/20 09:40:15;;;;;;;1.98;1.20;;;20.10;99.90;;;;;;4155935;28;20329;-77
2022/09/20 09:42:22;;;;;;;3.45;1.20;;;20.10;99.90;;;;;;4147498;28;20290;-77
2022/09/20 09:44:27;;;;;;;2.90;1.27;;;20.10;99.90;;;;;;4156068;28;20207;-78
2022/09/20 09:46:34;;;;;;;3.58;1.40;;;20.20;99.90;;;;;;4148949;28;20228;-76
2022/09/20 09:48:36;;;;;;;2.67;1.27;;;20.20;99.90;;;;;;4153122;28;20266;-78
2022/09/20 09:50:39;;;;;;;5.30;1.40;;;20.10;99.90;;;;;;4154040;28;20237;-77
2022/09/20 09:52:58;;;;;;;5.50;1.30;;;20.20;99.90;;;;;;4160224;28;21008;-78
2022/09/20 09:55:04;;;;;;;4.57;1.15;;;20.20;99.90;;;;;;4157914;28;20216;-77
2022/09/20 09:57:19;;;;;;;3.15;1.30;;;20.20;99.90;;;;;;4148272;28;20282;-79
2022/09/20 09:59:48;;;;;;;3.92;1.40;;;20.20;99.90;;;;;;4149072;28;20279;-74
2022/09/20 10:01:59;;;;;;;3.80;1.35;;;20.20;99.90;;;;;;4153228;28;20611;-74
2022/09/20 10:04:10;;;;;;;3.38;1.10;;;20.20;99.90;;;;;;4155839;28;20224;-74
2022/09/20 10:06:23;;;;;;;2.88;0.90;;;20.30;99.90;;;;;;4143811;28;20567;-74
2022/09/20 10:08:37;;;;;;;2.10;1.08;;;20.20;99.90;;;;;;4141333;28;20288;-74
2022/09/20 10:10:49;;;;;;;2.80;1.27;;;20.20;99.90;;;;;;4141610;28;20229;-74
2022/09/20 10:13:03;;;;;;;2.17;1.30;;;20.20;99.90;;;;;;4142639;28;20628;-75
2022/09/20 10:15:21;;;;;;;3.17;1.10;;;20.20;99.90;;;;;;4145189;28;20240;-74
2022/09/20 10:17:42;;;;;;;3.42;0.95;;;20.30;99.90;;;;;;4140969;28;20221;-73
2022/09/20 10:19:59;;;;;;;1.83;1.00;;;20.30;99.90;;;;;;4135075;28;20210;-75
2022/09/20 10:22:10;;;;;;;3.00;1.58;;;20.40;99.90;;;;;;4133364;28;20268;-75
2022/09/20 10:24:29;;;;;;;3.83;1.13;;;20.30;99.90;;;;;;4142368;28;20221;-75
2022/09/20 10:27:05;;;;;;;1.92;1.27;;;20.40;99.90;;;;;;4140718;28;20217;-74
2022/09/20 10:29:28;;;;;;;3.13;1.20;;;20.40;99.90;;;;;;4130038;28;20702;-75
2022/09/20 10:31:42;;;;;;;3.10;1.35;;;20.40;99.90;;;;;;4133674;28;20209;-78
2022/09/20 10:34:01;;;;;;;2.15;1.10;;;20.40;99.90;;;;;;4146214;28;20263;-75
2022/09/20 10:36:17;;;;;;;4.43;1.25;;;20.40;99.90;;;;;;4137177;28;20213;-73
2022/09/20 10:38:25;;;;;;;7.95;1.30;;;20.50;99.90;;;;;;4133314;28;20217;-76
2022/09/20 10:45:18;;;;;;;4.07;1.10;;;20.50;99.90;;;;;;4128689;28;20213;-75
2022/09/20 10:47:27;;;;;;;3.88;1.23;;;20.60;99.90;;;;;;4142220;28;20217;-76
2022/09/20 10:49:41;;;;;;;4.68;1.20;;;20.60;99.90;;;;;;4147606;28;20267;-75
2022/09/20 10:51:53;;;;;;;2.55;1.05;;;20.60;99.90;;;;;;4139958;28;20640;-76
2022/09/20 10:54:06;;;;;;;3.78;1.40;;;20.60;99.90;;;;;;4140167;28;21257;-76
2022/09/20 10:56:23;;;;;;;5.00;1.17;;;20.60;99.90;;;;;;4138310;28;20259;-76
2022/09/20 10:59:03;;;;;;;4.32;1.42;;;20.60;99.90;;;;;;4138085;28;20240;-78
2022/09/20 11:01:11;;;;;;;3.20;1.20;;;20.60;99.90;;;;;;4136903;28;20213;-77
2022/09/20 11:03:29;;;;;;;6.43;1.23;;;20.60;99.90;;;;;;4139374;28;20232;-76
2022/09/20 11:05:45;;;;;;;5.28;1.27;;;20.50;99.90;;;;;;4120408;28;20732;-75
2022/09/20 11:07:58;;;;;;;4.07;1.05;;;20.50;99.90;;;;;;4168808;28;20220;-76
2022/09/20 11:10:12;;;;;;;2.97;1.20;;;20.50;99.90;;;;;;4180459;28;20251;-78
2022/09/20 11:12:21;;;;;;;3.75;1.10;;;20.50;99.90;;;;;;4169802;28;20288;-79
2022/09/20 11:14:45;;;;;;;6.03;1.33;;;20.50;99.90;;;;;;4168001;28;20277;-78
2022/09/20 11:16:52;;;;;;;4.80;1.40;;;20.50;99.90;;;;;;4163398;28;20215;-79
2022/09/20 11:19:00;;;;;;;4.97;1.20;;;20.50;99.90;;;;;;4176638;28;20211;-78
2022/09/20 11:21:10;;;;;;;4.95;1.15;;;20.50;99.90;;;;;;4169571;28;20224;-77
2022/09/20 11:23:19;;;;;;;2.15;1.30;;;20.50;99.90;;;;;;4164635;28;20216;-77
2022/09/20 11:25:30;;;;;;;5.25;1.50;;;20.50;99.90;;;;;;4155050;28;20220;-77
2022/09/20 11:27:37;;;;;;;4.80;1.10;;;20.50;99.90;;;;;;4171000;28;20230;-77
2022/09/20 11:29:46;;;;;;;2.00;1.13;;;20.50;99.90;;;;;;4169684;28;20215;-76
2022/09/20 11:31:53;;;;;;;2.08;1.17;;;20.60;99.90;;;;;;4169491;28;20235;-77
2022/09/20 11:34:00;;;;;;;3.80;1.17;;;20.60;99.90;;;;;;4169442;28;20215;-77
2022/09/20 11:36:09;;;;;;;4.90;1.15;;;20.60;99.90;;;;;;4166177;28;20615;-77
2022/09/20 11:38:23;;;;;;;3.95;1.30;;;20.60;99.90;;;;;;4170487;28;20212;-76
2022/09/20 11:40:31;;;;;;;3.47;1.20;;;20.60;99.90;;;;;;4171191;28;20265;-76